Aviation Digital Data Service (ADDS)

Output produced by METARs form (1941 UTC 25 March 2017)
found at http://www.aviationweather.gov/adds/metars/
 
MPPA 251900Z 02012KT 9000 VCSH SCT016TCU SCT090 30/24 Q1012
TAF MPPA 251630Z 2518/2624 03010KT 9999 SCT020 SCT100 
     PROB30 
     TEMPO 2519/2523 SHRA 
     TEMPO 2603/2607 36005KT
       
MPBO 251900Z 29004KT 9999 SCT016 BKN080 Q1015
MPDA 251900Z 18014KT 9999 FEW025 34/21 Q1009
TAF MPDA 251630Z 2518/2606 22012KT 9999 SCT020 
     TEMPO 2602/2606 03006KT
       
MPMG 251900Z 35012KT 320V020 9999 SCT018TCU SCT090 28/23 Q1011 NOSIG
TAF MPMG 251630Z 2518/2606 35012KT 9000 SCT018 SCT090 
     PROB30 
     TEMPO 2520/2523 SHRA 
     BECMG 2602/2606 01006KT
       
MPTO 251900Z 29009KT 9000 VCSH SCT017TCU BKN080 30/23 Q1012 NOSIG
TAF MPTO 251630Z 2518/2624 01008KT 9999 SCT020 SCT090 
     PROB30 
     TEMPO 2519/2523 SHRA FM 260300 00000KT 9999 FEW020 
     BECMG 2617/2621 02010KT 9000 SCT010 SCT100